Time;durP1;ratioP1;P1;durP2;ratioP2;P2;SDS_P1;SDS_P2;PMS_P1;PMS_P2;Temp;Humidity;BMP_temperature;BMP_pressure;BME280_temperature;BME280_humidity;BME280_pressure;Samples;Min_cycle;Max_cycle;Signal;HPM_P1;HPM_P2
2022/11/10 00:00:08;;;;;;;42.42;26.48;;;;;;;8.70;100.00;100904.44;5065917;28;20486;-69
2022/11/10 00:02:34;;;;;;;40.67;27.58;;;;;;;8.83;100.00;100905.22;5065198;28;20037;-69
2022/11/10 00:04:59;;;;;;;37.10;25.58;;;;;;;8.94;100.00;100904.28;5058726;28;20040;-69
2022/11/10 00:07:26;;;;;;;42.85;27.55;;;;;;;8.87;100.00;100906.88;5061235;28;20025;-70
2022/11/10 00:09:54;;;;;;;37.97;25.88;;;;;;;8.64;100.00;100834.34;5062748;28;20028;-72
2022/11/10 00:12:20;;;;;;;42.78;27.70;;;;;;;8.13;100.00;100827.00;5072492;28;20037;-72
2022/11/10 00:17:30;;;;;;;41.17;27.63;;;;;;;8.62;100.00;100879.13;5071096;28;20047;-71
2022/11/10 00:19:56;;;;;;;42.08;26.75;;;;;;;8.66;100.00;100883.34;5048472;28;20028;-71
2022/11/10 00:22:21;;;;;;;41.58;27.33;;;;;;;8.74;100.00;100852.88;5045475;28;20021;-71
2022/11/10 00:24:46;;;;;;;46.40;28.63;;;;;;;8.79;100.00;100878.19;5045524;28;20028;-71
2022/11/10 00:27:16;;;;;;;42.60;26.88;;;;;;;8.44;100.00;100803.22;5060384;28;20059;-71
2022/11/10 00:29:41;;;;;;;43.50;28.20;;;;;;;8.68;100.00;100846.16;5047774;28;20028;-72
2022/11/10 00:32:07;;;;;;;44.67;28.10;;;;;;;8.30;100.00;100810.03;5045841;28;20125;-71
2022/11/10 00:34:33;;;;;;;42.67;27.70;;;;;;;8.76;100.00;100858.75;5058248;28;20057;-71
2022/11/10 00:36:59;;;;;;;45.92;29.50;;;;;;;8.56;100.00;100856.34;5062815;28;20036;-71
2022/11/10 00:39:24;;;;;;;47.20;29.00;;;;;;;8.44;100.00;100830.22;5059796;28;20163;-72
2022/11/10 00:41:50;;;;;;;44.20;28.35;;;;;;;8.56;100.00;100802.28;5040922;28;20021;-72
2022/11/10 00:44:15;;;;;;;44.20;27.88;;;;;;;8.14;100.00;100769.59;5041368;28;20033;-71
2022/11/10 00:46:41;;;;;;;43.78;27.10;;;;;;;8.44;100.00;100784.63;5059645;28;20071;-72
2022/11/10 00:49:06;;;;;;;50.17;28.20;;;;;;;8.46;100.00;100819.25;5059404;28;20112;-71
2022/11/10 00:51:32;;;;;;;41.67;26.33;;;;;;;8.64;100.00;100859.69;5060786;28;20247;-71
2022/11/10 00:53:57;;;;;;;38.47;26.52;;;;;;;8.57;100.00;100821.72;5062562;28;20041;-71
2022/11/10 00:56:23;;;;;;;38.47;25.38;;;;;;;8.69;100.00;100845.28;5044085;28;20033;-72
2022/11/10 00:58:49;;;;;;;36.38;25.33;;;;;;;8.54;100.00;100840.31;5044396;28;20029;-71
2022/11/10 01:01:16;;;;;;;32.17;22.08;;;;;;;8.10;100.00;100773.81;5041245;28;20036;-71
2022/11/10 01:03:41;;;;;;;32.22;21.33;;;;;;;8.54;100.00;100832.72;5043844;28;20040;-71
2022/11/10 01:06:13;;;;;;;37.63;24.13;;;;;;;8.37;100.00;100834.50;5039307;28;20032;-71
2022/11/10 01:08:39;;;;;;;33.80;23.15;;;;;;;8.26;100.00;100843.84;5060649;28;20115;-73
2022/11/10 01:11:34;;;;;;;35.72;23.50;;;;;;;8.62;100.00;100856.31;5041889;28;20037;-72
2022/11/10 01:13:59;;;;;;;30.90;22.08;;;;;;;8.33;100.00;100848.03;5037106;28;20040;-72
2022/11/10 01:16:30;;;;;;;36.60;24.83;;;;;;;8.16;100.00;100837.09;5062219;28;20033;-71
2022/11/10 01:18:58;;;;;;;28.67;21.17;;;;;;;8.50;100.00;100851.31;5063025;28;20025;-71
2022/11/10 01:21:24;;;;;;;19.75;17.52;;;;;;;7.95;100.00;100784.03;5041179;28;20033;-72
2022/11/10 01:23:50;;;;;;;22.35;18.15;;;;;;;8.07;100.00;100834.63;5065010;28;20036;-72
2022/11/10 01:26:16;;;;;;;29.13;20.77;;;;;;;7.84;100.00;100849.06;5045195;28;20028;-72
2022/11/10 01:28:42;;;;;;;33.17;23.27;;;;;;;7.93;100.00;100840.56;5067382;28;20024;-72
2022/11/10 01:31:10;;;;;;;35.60;24.48;;;;;;;7.01;100.00;100761.50;5067407;28;20694;-71
2022/11/10 01:33:36;;;;;;;35.47;23.95;;;;;;;6.88;100.00;100767.44;5057901;28;20156;-72
2022/11/10 01:36:02;;;;;;;38.72;25.52;;;;;;;6.88;100.00;100772.47;5065296;28;20466;-72
2022/11/10 01:38:30;;;;;;;39.45;25.88;;;;;;;7.02;100.00;100769.94;5044061;28;20788;-73
2022/11/10 01:40:56;;;;;;;41.70;28.10;;;;;;;6.79;100.00;100784.28;5054484;28;20029;-71
2022/11/10 01:43:22;;;;;;;47.67;29.05;;;;;;;6.49;100.00;100767.41;5060194;28;20037;-72
2022/11/10 01:45:50;;;;;;;40.50;28.63;;;;;;;6.76;100.00;100873.56;5057714;28;20047;-72
2022/11/10 01:48:24;;;;;;;40.50;28.38;;;;;;;6.10;100.00;100803.50;5045281;28;20035;-71
2022/11/10 01:50:50;;;;;;;42.70;28.13;;;;;;;6.17;100.00;100822.03;5058573;28;20505;-71
2022/11/10 01:53:23;;;;;;;38.97;27.83;;;;;;;6.50;100.00;100862.53;5054880;28;20028;-71
2022/11/10 01:55:49;;;;;;;41.50;26.90;;;;;;;6.12;100.00;100796.78;5064554;28;20480;-72
2022/11/10 01:58:19;;;;;;;38.95;27.13;;;;;;;7.01;100.00;100865.16;5043437;28;20033;-71
2022/11/10 02:00:44;;;;;;;38.92;26.83;;;;;;;6.22;100.00;100731.19;5056033;28;20511;-70
2022/11/10 02:03:31;;;;;;;39.08;27.00;;;;;;;6.87;100.00;100879.44;5063138;28;20032;-71
2022/11/10 02:05:57;;;;;;;40.42;27.02;;;;;;;6.66;100.00;100874.38;5058059;28;20039;-70
2022/11/10 02:08:24;;;;;;;38.58;26.00;;;;;;;6.80;100.00;100817.13;5063851;28;20466;-70
2022/11/10 02:10:53;;;;;;;33.42;24.00;;;;;;;6.92;100.00;100865.16;5057676;28;20106;-71
2022/11/10 02:13:19;;;;;;;34.15;23.65;;;;;;;6.57;100.00;100856.69;5045080;28;20518;-70
2022/11/10 02:15:44;;;;;;;34.67;22.50;;;;;;;6.96;100.00;100856.72;5043754;28;20021;-70
2022/11/10 02:18:10;;;;;;;28.35;20.40;;;;;;;6.86;100.00;100861.78;5060296;28;20060;-70
2022/11/10 02:20:35;;;;;;;25.45;18.33;;;;;;;6.22;100.00;100806.91;5057792;28;20515;-71
2022/11/10 02:23:30;;;;;;;24.63;18.00;;;;;;;6.78;100.00;100871.03;5061130;28;20028;-70
2022/11/10 02:25:57;;;;;;;24.80;17.75;;;;;;;6.79;100.00;100801.97;5057858;28;20108;-71
2022/11/10 02:28:24;;;;;;;27.35;18.55;;;;;;;7.17;100.00;100871.06;5058313;28;20033;-72
2022/11/10 02:30:50;;;;;;;27.45;18.48;;;;;;;6.85;100.00;100853.34;5060269;28;20111;-71
2022/11/10 02:33:18;;;;;;;28.27;20.40;;;;;;;6.53;100.00;100798.56;5057396;28;20083;-71
2022/11/10 02:35:45;;;;;;;33.35;21.13;;;;;;;6.57;100.00;100815.41;5035016;28;20029;-70
2022/11/10 02:38:10;;;;;;;39.88;27.05;;;;;;;7.08;100.00;100871.06;5061237;28;20028;-70
2022/11/10 02:40:36;;;;;;;41.60;26.80;;;;;;;6.62;100.00;100882.78;5047131;28;20371;-71
2022/11/10 02:43:05;;;;;;;43.25;29.80;;;;;;;6.75;100.00;100889.56;5057812;28;20024;-72
2022/11/10 02:45:30;;;;;;;49.08;31.92;;;;;;;6.28;100.00;100825.44;5063958;28;20025;-71
2022/11/10 02:47:57;;;;;;;50.78;32.22;;;;;;;6.17;100.00;100828.78;5056347;28;20411;-70
2022/11/10 02:50:23;;;;;;;40.38;28.45;;;;;;;6.29;100.00;100808.59;5042565;28;20032;-70
2022/11/10 02:52:48;;;;;;;36.80;25.67;;;;;;;6.33;100.00;100840.59;5063195;28;20028;-71
2022/11/10 02:55:14;;;;;;;33.90;23.95;;;;;;;6.45;100.00;100873.47;5038842;28;20035;-69
2022/11/10 02:57:39;;;;;;;32.03;22.90;;;;;;;6.57;100.00;100889.53;5043593;28;20036;-70
2022/11/10 03:00:06;;;;;;;33.83;22.55;;;;;;;6.37;100.00;100887.75;5056034;28;20502;-70
2022/11/10 03:02:35;;;;;;;32.10;22.40;;;;;;;6.38;100.00;100870.06;5052596;28;20493;-71
2022/11/10 03:05:01;;;;;;;47.60;25.83;;;;;;;6.57;100.00;100892.03;5037216;28;20029;-72
2022/11/10 03:07:26;;;;;;;40.95;23.80;;;;;;;6.33;100.00;100876.81;5057326;28;20098;-71
2022/11/10 03:09:52;;;;;;;32.38;21.35;;;;;;;6.36;100.00;100897.00;5055365;28;20032;-71
2022/11/10 03:12:17;;;;;;;31.52;22.75;;;;;;;6.02;100.00;100885.91;5060313;28;20405;-71
2022/11/10 03:14:43;;;;;;;33.00;23.63;;;;;;;6.11;100.00;100893.53;5057868;28;20434;-71
2022/11/10 03:17:08;;;;;;;33.85;23.88;;;;;;;5.73;100.00;100836.97;5055810;28;20029;-70
2022/11/10 03:19:34;;;;;;;32.50;24.55;;;;;;;5.78;100.00;100882.41;5059452;28;20025;-70
2022/11/10 03:21:59;;;;;;;33.35;24.70;;;;;;;6.03;100.00;100887.63;5042861;28;20033;-70
2022/11/10 03:24:25;;;;;;;34.75;23.73;;;;;;;6.12;100.00;100882.59;5061091;28;20032;-71
2022/11/10 03:26:50;;;;;;;62.63;25.60;;;;;;;5.46;100.00;100825.88;5061066;28;20029;-71
2022/11/10 03:29:15;;;;;;;139.45;26.67;;;;;;;5.90;100.00;100910.25;5059075;28;20489;-71
2022/11/10 03:31:41;;;;;;;112.68;27.48;;;;;;;5.54;100.00;100854.50;5066902;28;20541;-71
2022/11/10 03:34:06;;;;;;;86.93;28.80;;;;;;;5.67;100.00;100871.38;5049876;28;20053;-71
2022/11/10 03:36:32;;;;;;;139.48;31.35;;;;;;;4.79;100.00;100764.94;5064914;28;20024;-71
2022/11/10 03:38:57;;;;;;;215.43;32.13;;;;;;;5.48;100.00;100889.75;5047437;28;20388;-70
2022/11/10 03:41:22;;;;;;;138.18;31.15;;;;;;;5.19;100.00;100832.41;5046198;28;20455;-70
2022/11/10 03:43:48;;;;;;;114.15;31.48;;;;;;;5.45;100.00;100889.75;5064139;28;20059;-70
2022/11/10 03:46:15;;;;;;;109.45;32.25;;;;;;;4.85;100.00;100810.28;5044720;28;20036;-70
2022/11/10 03:48:41;;;;;;;161.30;32.92;;;;;;;5.12;100.00;100800.44;5058103;28;20054;-70
2022/11/10 03:51:06;;;;;;;100.07;31.20;;;;;;;5.49;100.00;100892.28;5063466;28;20414;-71
2022/11/10 03:53:32;;;;;;;85.97;30.15;;;;;;;5.18;100.00;100818.13;5067560;28;20152;-70
2022/11/10 03:56:02;;;;;;;76.65;30.70;;;;;;;5.33;100.00;100897.22;5066580;28;20032;-71
2022/11/10 03:58:27;;;;;;;108.32;31.33;;;;;;;5.31;100.00;100882.06;5066472;28;20028;-70
2022/11/10 04:00:54;;;;;;;83.35;31.65;;;;;;;5.17;100.00;100831.53;5064961;28;20020;-70
2022/11/10 04:03:20;;;;;;;53.08;24.98;;;;;;;7.77;100.00;100860.88;5043243;28;20028;-71
2022/11/10 04:15:40;;;;;;;58.33;28.00;;;;;;;5.57;100.00;100829.28;5059127;28;20038;-70
2022/11/10 04:16:43;;;;;;;55.25;25.50;;;;;;;6.68;100.00;100879.41;5057291;28;20120;-69
2022/11/10 04:19:08;;;;;;;59.10;27.60;;;;;;;5.53;100.00;100813.31;5063293;28;20143;-70
2022/11/10 04:21:34;;;;;;;62.30;29.38;;;;;;;5.81;100.00;100902.59;5046114;28;20047;-68
2022/11/10 04:23:59;;;;;;;65.18;28.80;;;;;;;5.76;100.00;100884.06;5060963;28;20563;-70
2022/11/10 04:26:27;;;;;;;60.72;28.88;;;;;;;5.77;100.00;100894.16;5062695;28;20024;-68
2022/11/10 04:29:01;;;;;;;61.80;30.77;;;;;;;5.78;100.00;100907.63;5054912;28;20025;-68
2022/11/10 04:31:28;;;;;;;63.25;28.33;;;;;;;5.63;100.00;100834.38;5056900;28;20074;-68
2022/11/10 04:33:54;;;;;;;73.30;29.77;;;;;;;5.79;100.00;100897.53;5037316;28;20041;-68
2022/11/10 04:36:22;;;;;;;66.60;29.70;;;;;;;5.80;100.00;100881.53;5052037;28;20040;-69
2022/11/10 04:38:48;;;;;;;77.00;31.30;;;;;;;5.48;100.00;100841.84;5058710;28;20081;-69
2022/11/10 04:41:14;;;;;;;87.80;33.20;;;;;;;5.68;100.00;100906.72;5071942;28;20024;-71
2022/11/10 04:43:40;;;;;;;91.40;32.60;;;;;;;5.77;100.00;100910.97;5072250;28;20036;-69
2022/11/10 04:46:14;;;;;;;151.07;34.80;;;;;;;5.31;100.00;100882.06;5071849;28;20036;-67
2022/11/10 04:48:40;;;;;;;69.93;30.60;;;;;;;5.94;100.00;100834.56;5054290;28;20036;-67
2022/11/10 04:51:06;;;;;;;108.60;33.70;;;;;;;5.66;100.00;100905.88;5072299;28;20043;-67
2022/11/10 04:53:32;;;;;;;115.28;34.97;;;;;;;5.40;100.00;100896.41;5071736;28;20145;-69
2022/11/10 04:55:57;;;;;;;76.07;33.00;;;;;;;5.17;100.00;100856.75;5053356;28;20055;-68
2022/11/10 04:58:23;;;;;;;73.22;32.95;;;;;;;5.61;100.00;100901.59;5071988;28;20032;-68
2022/11/10 05:00:48;;;;;;;85.72;34.00;;;;;;;5.19;100.00;100855.09;5071801;28;20032;-68
2022/11/10 05:03:14;;;;;;;76.13;32.45;;;;;;;5.20;100.00;100844.19;5050728;28;20040;-70
2022/11/10 05:05:40;;;;;;;80.75;34.47;;;;;;;5.69;100.00;100920.16;5071516;28;20067;-69
2022/11/10 05:08:06;;;;;;;82.53;33.95;;;;;;;5.07;100.00;100867.56;5053296;28;20467;-69
2022/11/10 05:10:33;;;;;;;72.85;32.88;;;;;;;4.94;100.00;100812.91;5071289;28;20040;-69
2022/11/10 05:12:59;;;;;;;72.30;32.70;;;;;;;5.43;100.00;100914.09;5071509;28;20033;-71
2022/11/10 05:15:24;;;;;;;72.05;31.95;;;;;;;5.38;100.00;100858.59;5066718;28;20027;-68
2022/11/10 05:17:52;;;;;;;71.45;28.48;;;;;;;4.63;100.00;100768.16;5033494;28;20470;-70
2022/11/10 05:20:19;;;;;;;50.15;20.98;;;;;;;4.82;100.00;100850.56;5033893;28;20121;-69
2022/11/10 05:23:36;;;;;;;34.53;18.77;;;;;;;4.91;100.00;100885.91;5051097;28;20036;-72
2022/11/10 05:25:32;;;;;;;31.50;17.75;;;;;;;4.99;100.00;100878.44;5050407;28;20033;-69
2022/11/10 05:27:57;;;;;;;30.63;18.02;;;;;;;5.38;100.00;100953.53;5033323;28;20401;-69
2022/11/10 05:30:23;;;;;;;33.67;18.15;;;;;;;4.43;100.00;100814.09;5051361;28;20028;-69
2022/11/10 05:32:48;;;;;;;65.53;22.00;;;;;;;4.80;100.00;100945.41;5062950;28;20398;-68
2022/11/10 05:35:14;;;;;;;43.17;20.52;;;;;;;5.12;100.00;100950.78;5062386;28;20021;-67
2022/11/10 05:37:40;;;;;;;34.78;20.20;;;;;;;4.79;100.00;100862.28;5050833;28;20031;-68
2022/11/10 05:40:08;;;;;;;44.78;22.13;;;;;;;5.10;100.00;100949.94;5051026;28;20434;-66
2022/11/10 05:42:33;;;;;;;43.38;20.75;;;;;;;7.51;100.00;100852.47;5050857;28;20091;-69
2022/11/10 05:44:59;;;;;;;27.77;20.23;;;;;;;5.25;100.00;100942.50;5032244;28;20036;-67
2022/11/10 05:47:24;;;;;;;32.92;19.05;;;;;;;5.41;100.00;100959.44;5051359;28;20115;-68
2022/11/10 05:49:49;;;;;;;29.98;19.20;;;;;;;5.28;100.00;100932.47;5049674;28;20056;-68
2022/11/10 05:52:15;;;;;;;33.30;20.88;;;;;;;4.78;100.00;100909.28;5050897;28;20025;-67
2022/11/10 05:54:40;;;;;;;50.33;21.35;;;;;;;5.38;100.00;100978.75;5032662;28;20047;-68
2022/11/10 05:57:06;;;;;;;40.58;21.77;;;;;;;4.15;100.00;100853.19;5033117;28;20040;-68
2022/11/10 05:59:31;;;;;;;61.78;22.63;;;;;;;5.31;100.00;100985.41;5051144;28;20040;-67
2022/11/10 06:01:57;;;;;;;69.90;25.00;;;;;;;4.95;100.00;100932.97;5050633;28;20021;-67
2022/11/10 06:04:22;;;;;;;80.32;24.92;;;;;;;4.88;100.00;100955.56;5031441;28;20043;-67
2022/11/10 06:06:48;;;;;;;41.88;24.08;;;;;;;5.18;100.00;100986.13;5031921;28;20029;-69
2022/11/10 06:09:13;;;;;;;47.72;23.58;;;;;;;5.19;100.00;100992.84;5032021;28;20021;-68
2022/11/10 06:11:38;;;;;;;48.72;26.42;;;;;;;5.12;100.00;100981.88;5050091;28;20056;-67
2022/11/10 06:14:04;;;;;;;59.25;43.63;;;;;;;5.47;100.00;100984.72;5049657;28;20071;-67
2022/11/10 06:16:29;;;;;;;45.63;27.42;;;;;;;5.53;100.00;100973.84;5031539;28;20040;-70
2022/11/10 06:18:55;;;;;;;50.08;25.48;;;;;;;5.64;100.00;100989.91;5050594;28;20036;-70
2022/11/10 06:21:20;;;;;;;43.90;25.23;;;;;;;5.21;100.00;100930.69;5050321;28;20029;-68
2022/11/10 06:23:46;;;;;;;60.53;42.58;;;;;;;5.96;100.00;101006.19;5050363;28;20407;-66
2022/11/10 06:26:11;;;;;;;45.63;26.33;;;;;;;5.59;100.00;100948.66;5050614;28;20028;-67
2022/11/10 06:28:37;;;;;;;40.03;24.27;;;;;;;6.00;100.00;100991.06;5050646;28;20535;-67
2022/11/10 06:31:02;;;;;;;45.95;24.67;;;;;;;5.54;100.00;101008.31;5032519;28;20029;-66
2022/11/10 06:33:27;;;;;;;45.75;24.58;;;;;;;5.93;100.00;101007.00;5050119;28;20489;-67
2022/11/10 06:35:54;;;;;;;50.88;30.63;;;;;;;5.97;100.00;101011.22;5032349;28;20032;-67
2022/11/10 06:38:19;;;;;;;42.45;25.48;;;;;;;5.79;100.00;100937.03;5050100;28;20037;-67
2022/11/10 06:40:44;;;;;;;40.38;24.55;;;;;;;5.90;100.00;100897.63;5050319;28;20453;-67
2022/11/10 06:43:10;;;;;;;43.45;25.02;;;;;;;6.58;100.00;101004.84;5032669;28;20106;-67
2022/11/10 06:45:35;;;;;;;47.88;27.02;;;;;;;6.05;100.00;100975.94;5050105;28;20507;-67
2022/11/10 06:48:08;;;;;;;47.83;26.65;;;;;;;6.09;100.00;101020.56;5050023;28;20375;-67
2022/11/10 06:50:34;;;;;;;55.42;26.88;;;;;;;6.27;100.00;101005.53;5050102;28;20033;-67
2022/11/10 06:53:00;;;;;;;48.42;27.02;;;;;;;6.25;100.00;100955.88;5050477;28;20040;-67
2022/11/10 06:55:27;;;;;;;68.43;29.98;;;;;;;5.74;100.00;100906.78;5049977;28;20442;-68
2022/11/10 06:57:53;;;;;;;65.53;31.67;;;;;;;6.38;100.00;100970.25;5035927;28;20037;-67
2022/11/10 07:00:18;;;;;;;64.35;35.35;;;;;;;6.65;100.00;100971.22;5054108;28;20172;-68
2022/11/10 07:02:44;;;;;;;69.03;32.92;;;;;;;6.03;100.00;100973.41;5054059;28;20025;-67
2022/11/10 07:05:10;;;;;;;55.03;30.75;;;;;;;6.56;100.00;101034.31;5053716;28;20041;-70
2022/11/10 07:07:35;;;;;;;57.70;30.60;;;;;;;6.85;100.00;100983.94;5054375;28;20535;-67
2022/11/10 07:10:01;;;;;;;53.08;27.25;;;;;;;7.13;100.00;101026.13;5035741;28;20095;-68
2022/11/10 07:12:26;;;;;;;49.03;28.48;;;;;;;6.86;100.00;100970.44;5054088;28;20025;-68
2022/11/10 07:14:51;;;;;;;51.10;29.30;;;;;;;7.10;100.00;101016.00;5053692;28;20031;-68
2022/11/10 07:17:17;;;;;;;51.38;28.67;;;;;;;7.26;100.00;101022.78;5036021;28;20060;-68
2022/11/10 07:19:42;;;;;;;50.60;27.77;;;;;;;7.06;100.00;100945.19;5053615;28;20110;-68
2022/11/10 07:22:08;;;;;;;46.65;27.70;;;;;;;7.32;100.00;101034.59;5036087;28;20037;-68
2022/11/10 07:24:33;;;;;;;49.63;30.02;;;;;;;6.57;100.00;100959.38;5053369;28;20083;-68
2022/11/10 07:26:59;;;;;;;49.95;27.75;;;;;;;7.25;100.00;101028.69;5035623;28;20040;-68
2022/11/10 07:29:24;;;;;;;58.00;30.17;;;;;;;7.39;100.00;101052.31;5053615;28;20033;-68
2022/11/10 07:31:51;;;;;;;53.17;29.05;;;;;;;7.23;100.00;100981.50;5053891;28;20102;-68
2022/11/10 07:34:17;;;;;;;61.65;34.05;;;;;;;7.17;100.00;100926.69;5053492;28;20072;-68
2022/11/10 07:36:42;;;;;;;65.93;34.72;;;;;;;7.52;100.00;101053.19;5053722;28;20057;-67
2022/11/10 07:39:07;;;;;;;67.40;36.25;;;;;;;7.56;100.00;101034.66;5053551;28;20139;-67
2022/11/10 07:41:33;;;;;;;65.93;34.90;;;;;;;7.95;100.00;100991.63;5053545;28;20033;-68
2022/11/10 07:43:58;;;;;;;63.67;35.03;;;;;;;8.42;100.00;101030.41;5053422;28;20115;-68
2022/11/10 07:46:24;;;;;;;64.95;35.00;;;;;;;7.83;100.00;101038.03;5053656;28;20041;-67
2022/11/10 07:48:49;;;;;;;66.43;35.90;;;;;;;7.84;100.00;101057.44;5035222;28;20124;-68
2022/11/10 07:51:14;;;;;;;58.55;35.55;;;;;;;7.64;100.00;101022.84;5053065;28;20170;-68
2022/11/10 07:53:40;;;;;;;56.20;31.88;;;;;;;8.11;100.00;100983.16;5053620;28;20052;-69
2022/11/10 07:56:06;;;;;;;53.78;29.35;;;;;;;8.72;100.00;101037.06;5035344;28;20063;-68
2022/11/10 07:58:33;;;;;;;52.40;30.00;;;;;;;8.10;100.00;100956.13;5035297;28;20025;-68
2022/11/10 08:00:58;;;;;;;52.08;29.73;;;;;;;8.66;100.00;101039.63;5052716;28;20025;-68
2022/11/10 08:03:24;;;;;;;54.65;29.35;;;;;;;8.70;100.00;101032.03;5053130;28;20025;-70
2022/11/10 08:05:50;;;;;;;54.10;29.08;;;;;;;8.42;100.00;100979.72;5035365;28;20266;-68
2022/11/10 08:08:16;;;;;;;49.95;28.10;;;;;;;8.62;100.00;101037.94;5034276;28;20052;-68
2022/11/10 08:10:42;;;;;;;45.20;26.80;;;;;;;8.73;100.00;101051.47;5052669;28;20036;-68
2022/11/10 08:13:10;;;;;;;53.90;27.13;;;;;;;8.31;100.00;100973.88;5052824;28;20036;-68
2022/11/10 08:15:36;;;;;;;51.33;27.75;;;;;;;8.67;100.00;100977.97;5034712;28;20521;-68
2022/11/10 08:18:16;;;;;;;54.88;28.17;;;;;;;8.97;100.00;101026.00;5034551;28;20024;-68
2022/11/10 08:20:42;;;;;;;54.17;28.08;;;;;;;9.05;100.00;101054.69;5052578;28;20040;-68
2022/11/10 08:23:07;;;;;;;49.95;26.70;;;;;;;9.13;100.00;101052.16;5052801;28;20391;-69
2022/11/10 08:25:35;;;;;;;55.90;28.30;;;;;;;8.89;100.00;100993.91;5034986;28;20033;-67
2022/11/10 08:28:07;;;;;;;58.15;27.83;;;;;;;9.44;100.00;101044.34;5052833;28;20065;-68
2022/11/10 08:30:32;;;;;;;;;;;;;;;9.47;100.00;101064.63;5035023;28;20502;-68
2022/11/10 08:33:00;;;;;;;66.15;28.65;;;;;;;9.31;100.00;101008.91;5052323;28;19921;-72
2022/11/10 08:35:28;;;;;;;53.65;28.00;;;;;;;9.77;100.00;101068.66;5052541;28;20057;-68
2022/11/10 08:37:53;;;;;;;72.68;29.65;;;;;;;9.50;100.00;100985.09;5052574;28;20036;-68
2022/11/10 08:40:19;;;;;;;58.50;28.15;;;;;;;9.54;100.00;101040.91;5052725;28;20037;-68
2022/11/10 08:42:45;;;;;;;58.38;28.30;;;;;;;10.30;100.00;101053.84;5052119;28;20029;-68
2022/11/10 08:45:11;;;;;;;55.47;29.00;;;;;;;10.51;100.00;101072.28;5052011;28;20033;-68
2022/11/10 08:47:37;;;;;;;56.67;30.00;;;;;;;10.33;100.00;101040.28;5052300;28;20109;-68
2022/11/10 08:50:03;;;;;;;50.72;26.85;;;;;;;10.44;100.00;101069.81;5052596;28;20029;-68
2022/11/10 08:52:28;;;;;;;35.72;22.42;;;;;;;10.20;100.00;101062.41;5051884;28;20172;-69
2022/11/10 08:54:54;;;;;;;36.90;22.42;;;;;;;10.67;100.00;101068.72;5034159;28;20129;-68
2022/11/10 08:57:19;;;;;;;36.50;21.83;;;;;;;10.41;100.00;101006.28;5051986;28;20567;-68
2022/11/10 08:59:45;;;;;;;31.00;20.27;;;;;;;10.53;100.00;100991.75;5051681;28;20025;-69
2022/11/10 09:02:10;;;;;;;28.90;19.15;;;;;;;10.41;100.00;101011.38;5034137;28;20036;-69
2022/11/10 09:04:35;;;;;;;29.02;18.63;;;;;;;11.14;100.00;101046.09;5033923;28;20058;-69
2022/11/10 09:07:01;;;;;;;26.02;17.58;;;;;;;11.06;100.00;101023.31;5052337;28;20029;-71
2022/11/10 09:09:26;;;;;;;24.15;17.40;;;;;;;11.35;100.00;101061.06;5051696;28;20087;-68
2022/11/10 09:11:52;;;;;;;26.67;18.75;;;;;;;10.97;100.00;101040.41;5033674;28;20488;-70
2022/11/10 09:14:17;;;;;;;30.10;17.75;;;;;;;11.51;100.00;101054.09;5051579;28;20060;-69
2022/11/10 09:16:43;;;;;;;29.38;18.38;;;;;;;10.80;100.00;100977.00;5051862;28;20029;-69
2022/11/10 09:19:08;;;;;;;25.52;17.83;;;;;;;11.38;100.00;101063.59;5051407;28;20036;-69
2022/11/10 09:21:34;;;;;;;31.05;18.92;;;;;;;11.56;100.00;101067.59;5051092;28;20483;-69
2022/11/10 09:23:59;;;;;;;34.83;17.92;;;;;;;11.38;100.00;101015.22;5051175;28;20061;-68
2022/11/10 09:26:25;;;;;;;30.92;19.52;;;;;;;11.69;100.00;101016.47;5033951;28;20032;-68
2022/11/10 09:28:50;;;;;;;38.05;22.00;;;;;;;11.78;100.00;100990.88;5051445;28;20094;-69
2022/11/10 09:31:16;;;;;;;32.72;22.00;;;;;;;12.02;100.00;101043.13;5033251;28;20048;-68
2022/11/10 09:33:41;;;;;;;35.17;20.65;;;;;;;12.36;100.00;101043.38;5033743;28;20048;-69
2022/11/10 09:36:07;;;;;;;31.65;20.60;;;;;;;12.28;100.00;101053.69;5051486;28;20033;-70
2022/11/10 09:38:34;;;;;;;30.50;20.58;;;;;;;12.08;100.00;101002.25;5033552;28;20038;-68
2022/11/10 09:41:09;;;;;;;26.30;20.20;;;;;;;12.45;100.00;101050.84;5051513;28;20094;-71
2022/11/10 09:44:04;;;;;;;33.70;20.92;;;;;;;12.62;100.00;101066.66;5050672;28;20381;-69
2022/11/10 09:46:36;;;;;;;35.45;22.70;;;;;;;12.77;100.00;101061.28;5050278;28;20045;-69
2022/11/10 09:49:34;;;;;;;30.70;21.52;;;;;;;13.02;100.00;101048.00;5051305;28;20022;-69
2022/11/10 09:52:01;;;;;;;28.83;20.50;;;;;;;13.00;100.00;100983.38;5025827;28;20044;-69
2022/11/10 09:54:33;;;;;;;27.98;20.25;;;;;;;12.80;100.00;101051.84;5033298;28;20057;-69
2022/11/10 09:57:01;;;;;;;30.92;20.08;;;;;;;13.07;100.00;100988.38;5050839;28;20119;-69
2022/11/10 09:59:31;;;;;;;24.70;18.98;;;;;;;13.15;100.00;101051.19;5051251;28;20025;-69
2022/11/10 10:02:02;;;;;;;25.88;17.95;;;;;;;13.33;100.00;101049.94;5032604;28;20080;-69
2022/11/10 10:04:52;;;;;;;25.30;17.38;;;;;;;13.28;100.00;101029.59;5051338;28;20471;-72
2022/11/10 10:07:37;;;;;;;25.50;19.67;;;;;;;13.97;100.00;101050.13;5050962;28;20056;-70
2022/11/10 10:10:20;;;;;;;27.00;18.02;;;;;;;14.03;100.00;101049.97;5051168;28;20044;-70
2022/11/10 10:13:16;;;;;;;29.33;18.13;;;;;;;13.79;100.00;101041.19;5050515;28;20522;-70
2022/11/10 10:16:16;;;;;;;23.15;16.27;;;;;;;13.73;100.00;101040.47;5050275;28;20146;-70
2022/11/10 10:19:05;;;;;;;28.50;20.25;;;;;;;14.14;100.00;101031.81;5050974;28;20071;-69
2022/11/10 10:21:48;;;;;;;22.52;16.67;;;;;;;13.92;100.00;101034.88;5050770;28;20053;-69
2022/11/10 10:24:17;;;;;;;22.77;15.38;;;;;;;14.08;100.00;101031.97;5050612;28;20025;-72
2022/11/10 10:26:51;;;;;;;21.45;15.20;;;;;;;13.73;100.00;100972.31;5050847;28;20036;-69
2022/11/10 10:29:23;;;;;;;22.08;15.43;;;;;;;14.16;100.00;101025.78;5050701;28;20064;-69
2022/11/10 10:31:51;;;;;;;21.50;15.68;;;;;;;14.29;100.00;101021.19;5058457;28;20039;-70
2022/11/10 10:34:23;;;;;;;24.88;17.05;;;;;;;14.67;100.00;101018.44;5046364;28;20053;-70
2022/11/10 10:36:49;;;;;;;22.42;15.98;;;;;;;14.15;100.00;100995.97;5051472;28;20039;-69
2022/11/10 10:39:25;;;;;;;24.95;16.75;;;;;;;14.02;100.00;100955.41;5048760;28;20104;-70
2022/11/10 10:41:50;;;;;;;24.65;18.13;;;;;;;15.01;100.00;101014.03;5030378;28;20029;-70
2022/11/10 10:44:18;;;;;;;26.77;17.40;;;;;;;15.00;100.00;101024.31;5030274;28;20120;-70
2022/11/10 10:47:06;;;;;;;24.15;16.13;;;;;;;14.65;100.00;101009.97;5030455;28;20033;-69
2022/11/10 10:49:35;;;;;;;25.10;17.67;;;;;;;15.21;100.00;101009.13;5029185;28;20033;-70
2022/11/10 10:52:23;;;;;;;21.52;15.45;;;;;;;14.76;100.00;100959.28;5028705;28;20046;-70
2022/11/10 10:54:59;;;;;;;24.38;16.35;;;;;;;14.83;100.00;101013.72;5029168;28;20400;-69
2022/11/10 10:57:28;;;;;;;22.13;15.85;;;;;;;15.52;100.00;101011.66;5030376;28;20030;-69
2022/11/10 11:00:17;;;;;;;23.58;16.85;;;;;;;15.21;100.00;100993.78;5028536;28;20040;-70
2022/11/10 11:02:43;;;;;;;20.48;15.27;;;;;;;15.06;100.00;101001.94;5028817;28;20126;-69
2022/11/10 11:05:15;;;;;;;24.35;17.35;;;;;;;14.56;100.00;100897.59;5028735;28;20459;-70
2022/11/10 11:07:41;;;;;;;24.88;18.00;;;;;;;15.80;100.00;101001.34;5030339;28;20553;-70
2022/11/10 11:10:20;;;;;;;61.50;26.35;;;;;;;15.19;100.00;100925.56;5030487;28;20037;-69
2022/11/10 11:12:46;;;;;;;29.00;19.30;;;;;;;15.04;100.00;100920.88;5029088;28;20065;-69
2022/11/10 11:15:19;;;;;;;41.47;22.17;;;;;;;15.23;100.00;100940.75;5028166;28;20764;-70
2022/11/10 11:17:57;;;;;;;24.45;17.58;;;;;;;15.12;100.00;100947.09;5029795;28;20026;-70
2022/11/10 11:20:34;;;;;;;67.78;26.98;;;;;;;15.86;100.00;100973.78;5029719;28;20038;-69